Aérodrome :
LOGIN :

S'inscrire | Disclaimer

   EN    FR    IT 

 










Légende :    VFR   VFR Marginal   IFR   IFR Intensif   IFR Très Intensif
Visi : 
Plafond : 
>= 8 km
>= 3000ft
5 à 8 km
1000 à 3000 ft
1500m à 5 km
500 à 1000 ft
800 à 1500m
200 à 500 ft
< 800m
< 200 ft
Symboles :   Orages  Brouillard  Fortes neiges  Fortes précipitations  Vent > 20 kt
SIGMETs :   Divers  Orages  Givrage  Turbulence  Onde Orograph.  Cendres Volcan.






- Altitude de l'aérodrome : 325 ft


LPCS - Cascais

DERNIER METAR :
  • 210800Z 00000KT 9999 FEW015 13/13 Q1007

METARs EXPIRÉS :
  • 210730Z 00000KT 9999 -RA FEW015 13/12 Q1007
  • 210700Z 07004KT 9999 -SHRA FEW012 SCT020 13/12 Q1007

TAF TAF LPCS
Valide du 21 à 07h jusqu'au 21 à 15h UTC


210730Z 2107/2115 VRB03KT 9999 SCT020
TEMPO 2107/2115 8000 SHRA SCT012 FEW025TCU
PROB30
TEMPO 2107/2112 VRB10G20KT 2000 TSRAGS BKN008 FEW020CB
BECMG 2112/2115 22008KT



MET'MAP, la Météo Aéronautique d'un coup d'oeil ! - Copyright ORBIFLY Décembre 2007 - Disclaimer

ORBIFLY MET'MAP TEAM :

Programmation & Développement : Alexandra Zaïnal
Conception & Développement : Baudouin d'Aumeries
Co-Programmation & Développement : Marc-Olivier Méhu
Soutien technique & logistique : Manuel Goepfert

Contact : metmap@orbifly.com




SOURCES & CREDITS :

   NOAA